Botkins, Ohio
Current Conditions -  °F | °C
As of 6:32 PM on Friday 19 Dec 2014 (Local Time) from KAXV Reporting Station
Overcast Overcast  
Wind Chill: 32°   Ceiling: 1900
Heat Index: 32°   Visibility: 10mi
Dew Point: 28°   Wind: 3mph
Humidity: 87%   Direction: 340°NNW
Pressure: 30.31"   Gusts: NA
Location:  40.47°N, 84.18°W
Report Text: KAXV 192332Z AUTO 34003KT 10SM OVC019 00/M02 A3031 RMK AO2
Loading
Personal Weather Stations






























Interactive Weather Map New forecast layout! Learn more

10-Day Weather Forecast

Advertisements
Track Severe Weather on mobile